createdAt,value
2018-12-18T00:09:20.291Z,972.2
2018-12-18T00:19:23.683Z,971.2
2018-12-18T00:29:27.111Z,972.4
2018-12-18T00:39:30.513Z,971.2
2018-12-18T00:49:33.924Z,971.9
2018-12-18T00:59:37.324Z,972.1
2018-12-18T01:09:40.718Z,971.8
2018-12-18T01:19:44.109Z,971.5
2018-12-18T01:29:47.516Z,971.8
2018-12-18T01:39:50.949Z,971.3
2018-12-18T01:49:54.360Z,971.8
2018-12-18T01:59:57.776Z,971.6
2018-12-18T02:10:01.210Z,972.3
2018-12-18T02:20:04.691Z,972.1
2018-12-18T02:30:08.133Z,971.8
2018-12-18T02:40:11.563Z,971.7
2018-12-18T02:50:14.998Z,971.6
2018-12-18T03:00:18.426Z,971.4
2018-12-18T03:10:21.828Z,971.1
2018-12-18T03:20:25.241Z,970.8
2018-12-18T03:30:28.673Z,970.6
2018-12-18T03:40:32.112Z,970.7
2018-12-18T03:50:35.526Z,970.6
2018-12-18T04:00:38.931Z,970.3
2018-12-18T04:10:42.334Z,970.3
2018-12-18T04:20:45.784Z,970.7
2018-12-18T04:30:49.209Z,970
2018-12-18T04:40:52.601Z,970.5
2018-12-18T04:50:55.998Z,970.8
2018-12-18T05:00:59.424Z,970.7
2018-12-18T05:11:02.822Z,970.9
2018-12-18T05:21:06.254Z,970.8
2018-12-18T05:31:09.688Z,970.5
2018-12-18T05:41:13.125Z,970.1
2018-12-18T05:51:16.551Z,970.5
2018-12-18T06:01:19.933Z,970.4
2018-12-18T06:11:23.346Z,970.1
2018-12-18T06:21:26.775Z,970.4
2018-12-18T06:31:30.194Z,970.3
2018-12-18T06:41:33.634Z,970.2
2018-12-18T06:51:37.066Z,970.7
2018-12-18T07:01:40.478Z,970.7
2018-12-18T07:11:43.897Z,970.4
2018-12-18T07:21:47.339Z,970.1
2018-12-18T07:31:50.779Z,970
2018-12-18T07:41:54.189Z,970.3
2018-12-18T07:51:57.614Z,970.6
2018-12-18T08:02:01.019Z,970.4
2018-12-18T08:12:04.429Z,970.6
2018-12-18T08:22:07.825Z,970.2
2018-12-18T08:32:11.256Z,970.2
2018-12-18T08:42:14.678Z,970
2018-12-18T08:52:18.124Z,969.9
2018-12-18T09:02:21.516Z,970
2018-12-18T09:12:24.966Z,970.1
2018-12-18T09:22:28.353Z,969.7
2018-12-18T09:32:31.747Z,969.8
2018-12-18T09:42:35.185Z,969.6
2018-12-18T09:52:38.626Z,969.5
2018-12-18T10:02:42.060Z,969.5
2018-12-18T10:12:45.484Z,969.1
2018-12-18T10:22:48.889Z,969
2018-12-18T10:32:52.324Z,968.6
2018-12-18T10:42:55.722Z,968.7
2018-12-18T10:52:59.142Z,969.1
2018-12-18T11:03:02.585Z,968.5
2018-12-18T11:13:06.007Z,968.3
2018-12-18T11:23:09.407Z,967.4
2018-12-18T11:33:12.821Z,968.7
2018-12-18T11:43:16.207Z,967.4
2018-12-18T11:53:19.614Z,967.5
2018-12-18T12:03:23.056Z,967.1
2018-12-18T12:13:26.477Z,967.7
2018-12-18T12:23:29.891Z,966.4
2018-12-18T12:33:33.295Z,966.5
2018-12-18T12:43:36.736Z,966.4
2018-12-18T12:53:40.147Z,966.7
2018-12-18T13:03:43.636Z,966.4
2018-12-18T13:13:47.053Z,966.1
2018-12-18T13:23:50.490Z,965.4
2018-12-18T13:33:53.878Z,965.4
2018-12-18T13:43:57.358Z,965.8
2018-12-18T13:54:00.782Z,965.5
2018-12-18T14:04:04.228Z,965.5
2018-12-18T14:14:07.697Z,965.2
2018-12-18T14:24:11.159Z,966
2018-12-18T14:34:14.572Z,966
2018-12-18T14:44:18.002Z,965.5
2018-12-18T14:54:21.413Z,965.7
2018-12-18T15:04:24.816Z,965.8
2018-12-18T15:14:28.261Z,965.2
2018-12-18T15:24:31.673Z,965.4
2018-12-18T15:34:35.094Z,965.6
2018-12-18T15:44:38.503Z,965.6
2018-12-18T15:54:42.006Z,965.4
2018-12-18T16:04:45.436Z,965
2018-12-18T16:14:48.867Z,965
2018-12-18T16:24:52.298Z,964.6
2018-12-18T16:34:55.699Z,965
2018-12-18T16:44:59.095Z,965.2
2018-12-18T16:55:02.494Z,965.3
2018-12-18T17:05:05.950Z,965.1
2018-12-18T17:15:09.378Z,965
2018-12-18T17:25:12.828Z,965.8
2018-12-18T17:35:16.255Z,965
2018-12-18T17:45:19.661Z,964.7
2018-12-18T17:55:23.068Z,965.4
2018-12-18T18:05:26.503Z,965.2
2018-12-18T18:15:29.924Z,964.8
2018-12-18T18:25:33.320Z,964.6
2018-12-18T18:35:36.711Z,964.9
2018-12-18T18:45:40.112Z,965.1
2018-12-18T18:55:43.546Z,965.3
2018-12-18T19:05:46.943Z,964.8
2018-12-18T19:15:50.336Z,964.6
2018-12-18T19:25:53.724Z,964.4
2018-12-18T19:35:57.127Z,964.5
2018-12-18T19:46:00.547Z,965
2018-12-18T19:56:03.985Z,965.3
2018-12-18T20:06:07.411Z,965.4
2018-12-18T20:16:10.908Z,965.1
2018-12-18T20:26:14.345Z,965
2018-12-18T20:36:17.764Z,964.5
2018-12-18T20:46:21.198Z,964.5
2018-12-18T20:56:24.807Z,964.9
2018-12-18T21:06:28.211Z,965.2
2018-12-18T21:16:31.612Z,965.1
2018-12-18T21:26:35.730Z,965.1
2018-12-18T21:36:39.228Z,964.6
2018-12-18T21:46:42.648Z,964.6
2018-12-18T21:56:46.051Z,964.4
2018-12-18T22:06:49.491Z,964.7
2018-12-18T22:16:52.951Z,965.2
2018-12-18T22:26:56.362Z,965.1
2018-12-18T22:36:59.785Z,965.3
2018-12-18T22:47:03.208Z,965.5
2018-12-18T22:57:06.616Z,965.4
2018-12-18T23:07:10.022Z,965.5
2018-12-18T23:17:14.416Z,965.2
2018-12-18T23:27:17.845Z,965.2
2018-12-18T23:37:21.272Z,965
2018-12-18T23:47:24.670Z,964.7
2018-12-18T23:57:28.110Z,964.7
